createdAt,value
2018-07-28T00:00:00.060Z,68.01
2018-07-28T00:01:00.030Z,68.59
2018-07-28T00:02:00.032Z,68.20
2018-07-28T00:03:00.005Z,68.40
2018-07-28T00:03:59.989Z,69.07
2018-07-28T00:04:59.975Z,68.78
2018-07-28T00:05:59.963Z,68.98
2018-07-28T00:06:59.948Z,68.88
2018-07-28T00:07:59.945Z,69.46
2018-07-28T00:08:59.920Z,69.46
2018-07-28T00:09:59.907Z,68.98
2018-07-28T00:10:59.894Z,68.78
2018-07-28T00:11:59.880Z,68.49
2018-07-28T00:12:59.879Z,68.88
2018-07-28T00:13:59.853Z,68.88
2018-07-28T00:14:59.840Z,68.91
2018-07-28T00:15:59.828Z,69.49
2018-07-28T00:16:59.816Z,69.46
2018-07-28T00:17:59.809Z,70.32
2018-07-28T00:18:59.789Z,68.88
2018-07-28T00:19:59.773Z,68.40
2018-07-28T00:20:59.758Z,68.33
2018-07-28T00:21:59.745Z,68.14
2018-07-28T00:22:59.764Z,67.36
2018-07-28T00:23:59.719Z,67.75
2018-07-28T00:24:59.705Z,67.27
2018-07-28T00:25:59.691Z,67.56
2018-07-28T00:26:59.681Z,68.24
2018-07-28T00:27:59.666Z,67.72
2018-07-28T00:28:59.662Z,67.82
2018-07-28T00:29:59.638Z,68.20
2018-07-28T00:30:59.627Z,68.49
2018-07-28T00:31:59.613Z,68.59
2018-07-28T00:32:59.597Z,68.59
2018-07-28T00:33:59.598Z,68.40
2018-07-28T00:34:59.570Z,68.40
2018-07-28T00:35:59.557Z,68.01
2018-07-28T00:36:59.544Z,67.36
2018-07-28T00:37:59.533Z,67.56
2018-07-28T00:38:59.516Z,67.75
2018-07-28T00:39:59.511Z,66.98
2018-07-28T00:40:59.490Z,67.08
2018-07-28T00:41:59.477Z,67.27
2018-07-28T00:42:59.461Z,67.75
2018-07-28T00:43:59.449Z,67.17
2018-07-28T00:44:59.445Z,67.27
2018-07-28T00:45:59.422Z,66.98
2018-07-28T00:46:59.408Z,67.27
2018-07-28T00:47:59.397Z,67.17
2018-07-28T00:48:59.380Z,67.75
2018-07-28T00:49:59.380Z,67.36
2018-07-28T00:50:59.353Z,67.46
2018-07-28T00:51:59.341Z,68.04
2018-07-28T00:52:59.325Z,67.46
2018-07-28T00:53:59.313Z,68.24
2018-07-28T00:54:59.299Z,68.04
2018-07-28T00:55:59.298Z,68.01
2018-07-28T00:56:59.272Z,68.40
2018-07-28T00:57:59.259Z,68.30
2018-07-28T00:58:59.246Z,68.59
2018-07-28T00:59:59.234Z,68.40
2018-07-28T01:00:59.249Z,68.40
2018-07-28T01:01:59.204Z,68.40
2018-07-28T01:02:59.191Z,68.59
2018-07-28T01:03:59.178Z,68.40
2018-07-28T01:04:59.163Z,68.30
2018-07-28T01:05:59.150Z,68.49
2018-07-28T01:06:59.168Z,68.30
2018-07-28T01:07:59.123Z,68.24
2018-07-28T01:08:59.109Z,68.24
2018-07-28T01:09:59.096Z,68.33
2018-07-28T01:10:59.085Z,68.04
2018-07-28T01:11:59.070Z,68.04
2018-07-28T01:12:59.064Z,68.14
2018-07-28T01:13:59.042Z,67.94
2018-07-28T01:14:59.031Z,68.30
2018-07-28T01:15:59.016Z,68.30
2018-07-28T01:16:59.000Z,68.59
2018-07-28T01:17:58.998Z,68.49
2018-07-28T01:18:58.977Z,68.68
2018-07-28T01:19:58.960Z,68.78
2018-07-28T01:20:58.956Z,69.17
2018-07-28T01:21:58.935Z,69.26
2018-07-28T01:22:58.934Z,69.94
2018-07-28T01:23:58.906Z,69.94
2018-07-28T01:24:58.892Z,70.62
2018-07-28T01:25:58.879Z,70.58
2018-07-28T01:26:58.865Z,70.48
2018-07-28T01:27:58.852Z,70.58
2018-07-28T01:28:58.847Z,71.16
2018-07-28T01:29:58.823Z,70.97
2018-07-28T01:30:58.810Z,71.55
2018-07-28T01:31:58.797Z,71.55
2018-07-28T01:32:58.784Z,71.55
2018-07-28T01:33:58.777Z,71.94
2018-07-28T01:34:58.756Z,71.55
2018-07-28T01:35:58.741Z,72.22
2018-07-28T01:36:58.729Z,72.32
2018-07-28T01:37:58.714Z,72.03
2018-07-28T01:38:58.711Z,72.03
2018-07-28T01:39:58.686Z,72.00
2018-07-28T01:40:58.672Z,72.19
2018-07-28T01:41:58.659Z,72.67
2018-07-28T01:42:58.648Z,73.09
2018-07-28T01:43:58.641Z,73.35
2018-07-28T01:44:58.618Z,73.38
2018-07-28T01:45:58.604Z,73.48
2018-07-28T01:46:58.593Z,73.67
2018-07-28T01:47:58.577Z,73.58
2018-07-28T01:48:58.573Z,73.54
2018-07-28T01:49:58.550Z,72.80
2018-07-28T01:50:58.536Z,72.80
2018-07-28T01:51:58.525Z,73.09
2018-07-28T01:52:58.508Z,73.58
2018-07-28T01:53:58.503Z,72.71
2018-07-28T01:54:58.480Z,72.52
2018-07-28T01:55:58.467Z,72.61
2018-07-28T01:56:58.455Z,72.22
2018-07-28T01:57:58.439Z,73.09
2018-07-28T01:58:58.438Z,72.42
2018-07-28T01:59:58.412Z,71.94
2018-07-28T02:00:58.396Z,72.61
2018-07-28T02:01:58.383Z,72.32
2018-07-28T02:02:58.369Z,72.52
2018-07-28T02:03:58.359Z,72.71
2018-07-28T02:04:58.353Z,72.61
2018-07-28T02:05:58.328Z,73.00
2018-07-28T02:06:58.316Z,72.52
2018-07-28T02:07:58.301Z,72.61
2018-07-28T02:08:58.285Z,72.80
2018-07-28T02:09:58.282Z,72.58
2018-07-28T02:10:58.258Z,73.44
2018-07-28T02:11:58.244Z,73.35
2018-07-28T02:12:58.230Z,73.35
2018-07-28T02:13:58.216Z,73.93
2018-07-28T02:14:58.213Z,74.21
2018-07-28T02:15:58.188Z,74.79
2018-07-28T02:16:58.174Z,74.31
2018-07-28T02:17:58.162Z,74.69
2018-07-28T02:18:58.147Z,74.99
2018-07-28T02:19:58.142Z,75.09
2018-07-28T02:20:58.118Z,75.18
2018-07-28T02:21:58.105Z,75.18
2018-07-28T02:22:58.090Z,75.57
2018-07-28T02:23:58.078Z,75.37
2018-07-28T02:24:58.077Z,75.62
2018-07-28T02:25:58.048Z,76.30
2018-07-28T02:26:58.035Z,75.62
2018-07-28T02:27:58.021Z,75.72
2018-07-28T02:28:58.026Z,75.34
2018-07-28T02:29:57.992Z,75.14
2018-07-28T02:30:57.992Z,75.05
2018-07-28T02:31:57.965Z,75.92
2018-07-28T02:32:57.950Z,75.72
2018-07-28T02:33:57.972Z,75.62
2018-07-28T02:34:57.923Z,75.62
2018-07-28T02:35:57.911Z,75.14
2018-07-28T02:36:57.904Z,75.34
2018-07-28T02:37:57.881Z,75.53
2018-07-28T02:38:57.865Z,75.92
2018-07-28T02:39:57.858Z,76.30
2018-07-28T02:40:57.839Z,76.40
2018-07-28T02:41:57.850Z,76.30
2018-07-28T02:42:57.810Z,78.03
2018-07-28T02:43:57.801Z,77.07
2018-07-28T02:44:57.782Z,77.46
2018-07-28T02:45:57.769Z,77.71
2018-07-28T02:46:57.819Z,77.42
2018-07-28T02:47:57.749Z,78.77
2018-07-28T02:48:57.726Z,78.29
2018-07-28T02:49:57.712Z,79.93
2018-07-28T02:50:59.479Z,79.35
2018-07-28T02:51:57.683Z,79.44
2018-07-28T02:52:57.685Z,78.96
2018-07-28T02:53:57.654Z,78.77
2018-07-28T02:54:57.640Z,78.77
2018-07-28T02:55:57.636Z,79.25
2018-07-28T02:56:57.614Z,79.16
2018-07-28T02:57:57.598Z,78.77
2018-07-28T02:58:57.594Z,79.06
2018-07-28T02:59:57.570Z,78.48
2018-07-28T03:00:57.556Z,78.29
2018-07-28T03:01:57.541Z,78.38
2018-07-28T03:02:57.527Z,78.61
2018-07-28T03:03:57.528Z,77.75
2018-07-28T03:04:57.498Z,77.94
2018-07-28T03:05:57.484Z,77.46
2018-07-28T03:06:57.470Z,77.55
2018-07-28T03:07:57.454Z,77.55
2018-07-28T03:08:57.460Z,78.52
2018-07-28T03:09:57.437Z,78.96
2018-07-28T03:10:57.413Z,79.25
2018-07-28T03:11:57.400Z,80.51
2018-07-28T03:12:57.384Z,80.66
2018-07-28T03:13:57.370Z,80.56
2018-07-28T03:14:57.374Z,81.14
2018-07-28T03:15:57.345Z,82.87
2018-07-28T03:16:57.326Z,81.91
2018-07-28T03:17:57.314Z,82.68
2018-07-28T03:18:57.298Z,82.59
2018-07-28T03:19:57.285Z,83.07
2018-07-28T03:20:57.292Z,82.87
2018-07-28T03:21:57.256Z,83.07
2018-07-28T03:22:57.242Z,82.68
2018-07-28T03:23:57.229Z,82.59
2018-07-28T03:24:57.214Z,82.49
2018-07-28T03:25:57.209Z,83.36
2018-07-28T03:26:57.188Z,83.94
2018-07-28T03:27:57.170Z,83.36
2018-07-28T03:28:57.155Z,84.32
2018-07-28T03:29:57.141Z,84.52
2018-07-28T03:30:57.135Z,84.47
2018-07-28T03:31:57.112Z,86.01
2018-07-28T03:32:57.097Z,86.01
2018-07-28T03:33:57.083Z,85.14
2018-07-28T03:34:57.068Z,85.53
2018-07-28T03:35:57.068Z,86.21
2018-07-28T03:36:57.037Z,85.14
2018-07-28T03:37:57.025Z,82.93
2018-07-28T03:38:57.011Z,83.55
2018-07-28T03:39:56.997Z,84.12
2018-07-28T03:40:56.981Z,84.42
2018-07-28T03:41:56.977Z,84.52
2018-07-28T03:42:56.953Z,85.53
2018-07-28T03:43:56.939Z,85.19
2018-07-28T03:44:56.923Z,85.86
2018-07-28T03:45:56.910Z,84.99
2018-07-28T03:46:56.928Z,83.84
2018-07-28T03:47:56.881Z,84.52
2018-07-28T03:48:56.866Z,85.38
2018-07-28T03:49:56.853Z,84.66
2018-07-28T03:50:56.837Z,85.34
2018-07-28T03:51:56.823Z,85.34
2018-07-28T03:52:56.819Z,85.43
2018-07-28T03:53:56.794Z,85.72
2018-07-28T03:54:56.780Z,85.82
2018-07-28T03:55:56.766Z,86.82
2018-07-28T03:56:56.749Z,86.59
2018-07-28T03:57:56.748Z,84.76
2018-07-28T03:58:56.721Z,84.42
2018-07-28T03:59:56.709Z,83.36
2018-07-28T04:00:56.690Z,83.16
2018-07-28T04:01:56.679Z,82.68
2018-07-28T04:02:56.672Z,80.66
2018-07-28T04:03:56.648Z,80.56
2018-07-28T04:04:56.665Z,79.93
2018-07-28T04:05:56.624Z,78.86
2018-07-28T04:06:56.609Z,78.86
2018-07-28T04:07:56.607Z,78.96
2018-07-28T04:08:56.576Z,79.16
2018-07-28T04:09:56.561Z,80.69
2018-07-28T04:10:56.546Z,80.79
2018-07-28T04:11:56.533Z,80.79
2018-07-28T04:12:56.520Z,81.76
2018-07-28T04:13:56.512Z,82.10
2018-07-28T04:14:56.489Z,83.45
2018-07-28T04:15:56.474Z,84.12
2018-07-28T04:16:56.460Z,85.67
2018-07-28T04:17:56.444Z,85.09
2018-07-28T04:18:56.442Z,84.70
2018-07-28T04:19:56.416Z,85.96
2018-07-28T04:20:56.402Z,86.25
2018-07-28T04:21:56.387Z,86.15
2018-07-28T04:22:56.374Z,86.54
2018-07-28T04:23:56.374Z,86.63
2018-07-28T04:24:56.344Z,85.47
2018-07-28T04:25:56.334Z,85.28
2018-07-28T04:26:56.316Z,86.35
2018-07-28T04:27:56.301Z,86.15
2018-07-28T04:28:56.287Z,86.25
2018-07-28T04:29:56.281Z,85.96
2018-07-28T04:30:56.257Z,85.67
2018-07-28T04:31:56.254Z,85.57
2018-07-28T04:32:56.227Z,85.38
2018-07-28T04:33:56.226Z,85.67
2018-07-28T04:34:56.201Z,85.86
2018-07-28T04:35:56.185Z,86.63
2018-07-28T04:36:56.221Z,87.40
2018-07-28T04:37:56.159Z,87.88
2018-07-28T04:38:56.148Z,88.46
2018-07-28T04:39:56.159Z,89.14
2018-07-28T04:40:56.114Z,89.18
2018-07-28T04:41:56.098Z,88.37
2018-07-28T04:42:56.084Z,89.47
2018-07-28T04:43:56.108Z,90.05
2018-07-28T04:44:56.055Z,89.67
2018-07-28T04:45:56.051Z,89.37
2018-07-28T04:46:56.027Z,89.28
2018-07-28T04:47:56.013Z,89.18
2018-07-28T04:48:55.997Z,88.79
2018-07-28T04:49:55.982Z,87.45
2018-07-28T04:50:55.980Z,87.20
2018-07-28T04:51:55.962Z,86.82
2018-07-28T04:52:55.943Z,85.46
2018-07-28T04:53:55.927Z,84.50
2018-07-28T04:54:55.913Z,84.64
2018-07-28T04:55:55.929Z,84.83
2018-07-28T04:56:55.884Z,84.44
2018-07-28T04:57:55.869Z,83.96
2018-07-28T04:58:55.853Z,83.48
2018-07-28T04:59:55.842Z,83.42
2018-07-28T05:00:55.827Z,84.39
2018-07-28T05:01:55.823Z,84.20
2018-07-28T05:02:55.799Z,84.00
2018-07-28T05:03:55.785Z,84.88
2018-07-28T05:04:55.770Z,84.88
2018-07-28T05:05:55.757Z,84.63
2018-07-28T05:06:55.760Z,84.43
2018-07-28T05:07:55.729Z,82.79
2018-07-28T05:08:55.715Z,82.02
2018-07-28T05:09:55.701Z,82.40
2018-07-28T05:10:55.687Z,81.53
2018-07-28T05:11:55.674Z,81.15
2018-07-28T05:12:55.671Z,79.89
2018-07-28T05:13:55.646Z,80.08
2018-07-28T05:14:55.633Z,80.47
2018-07-28T05:15:55.673Z,80.76
2018-07-28T05:16:55.606Z,80.86
2018-07-28T05:17:55.602Z,81.44
2018-07-28T05:18:55.578Z,79.60
2018-07-28T05:19:55.565Z,79.60
2018-07-28T05:20:55.551Z,78.64
2018-07-28T05:21:55.537Z,78.34
2018-07-28T05:22:55.538Z,79.54
2018-07-28T05:23:55.512Z,78.29
2018-07-28T05:24:55.496Z,79.74
2018-07-28T05:25:55.486Z,76.74
2018-07-28T05:26:55.472Z,76.35
2018-07-28T05:27:55.457Z,75.87
2018-07-28T05:28:55.454Z,75.87
2018-07-28T05:29:55.431Z,76.35
2018-07-28T05:30:55.417Z,77.03
2018-07-28T05:31:55.405Z,77.61
2018-07-28T05:32:55.390Z,79.83
2018-07-28T05:33:55.387Z,78.96
2018-07-28T05:34:55.365Z,79.12
2018-07-28T05:35:55.352Z,77.28
2018-07-28T05:36:55.342Z,77.57
2018-07-28T05:37:55.328Z,78.73
2018-07-28T05:38:55.366Z,78.34
2018-07-28T05:39:55.298Z,76.84
2018-07-28T05:40:55.284Z,76.70
2018-07-28T05:41:55.274Z,76.70
2018-07-28T05:42:55.279Z,77.90
2018-07-28T05:43:55.245Z,77.38
2018-07-28T05:44:55.240Z,78.48
2018-07-28T05:45:55.217Z,77.42
2018-07-28T05:46:55.205Z,78.29
2018-07-28T05:47:55.193Z,77.51
2018-07-28T05:48:55.178Z,78.38
2018-07-28T05:49:55.196Z,78.19
2018-07-28T05:50:55.155Z,78.87
2018-07-28T05:51:55.139Z,80.51
2018-07-28T05:52:55.125Z,80.51
2018-07-28T05:53:55.112Z,81.57
2018-07-28T05:54:55.099Z,82.35
2018-07-28T05:55:55.101Z,83.85
2018-07-28T05:56:55.071Z,86.07
2018-07-28T05:57:55.059Z,87.91
2018-07-28T05:58:55.046Z,88.10
2018-07-28T05:59:55.035Z,91.19
2018-07-28T06:00:55.028Z,88.83
2018-07-28T06:01:55.005Z,92.69
2018-07-28T06:02:54.993Z,96.56
2018-07-28T06:03:54.983Z,99.99
2018-07-28T06:05:06.056Z,99.99
2018-07-28T06:05:54.968Z,99.99
2018-07-28T06:06:54.938Z,99.99
2018-07-28T06:07:54.925Z,99.99
2018-07-28T06:08:54.910Z,99.99
2018-07-28T06:09:54.896Z,99.99
2018-07-28T06:10:54.885Z,99.99
2018-07-28T06:11:54.884Z,99.99
2018-07-28T06:12:54.857Z,99.99
2018-07-28T06:13:54.843Z,99.99
2018-07-28T06:14:54.830Z,99.99
2018-07-28T06:15:54.817Z,99.99
2018-07-28T06:16:54.818Z,99.99
2018-07-28T06:17:54.789Z,99.99
2018-07-28T06:18:54.775Z,99.99
2018-07-28T06:19:54.765Z,99.99
2018-07-28T06:20:54.749Z,99.99
2018-07-28T06:21:55.529Z,99.99
2018-07-28T06:22:54.733Z,99.99
2018-07-28T06:23:54.743Z,99.99
2018-07-28T06:24:54.709Z,99.99
2018-07-28T06:25:54.730Z,99.99
2018-07-28T06:26:54.668Z,99.99
2018-07-28T06:27:54.667Z,99.99
2018-07-28T06:28:54.640Z,99.99
2018-07-28T06:29:54.627Z,99.99
2018-07-28T06:30:54.614Z,99.99
2018-07-28T06:31:54.623Z,99.99
2018-07-28T06:32:54.601Z,99.99
2018-07-28T06:33:54.574Z,99.99
2018-07-28T06:34:54.560Z,99.99
2018-07-28T06:35:54.547Z,99.99
2018-07-28T06:36:54.532Z,99.99
2018-07-28T06:37:54.520Z,99.99
2018-07-28T06:38:54.523Z,99.99
2018-07-28T06:39:54.494Z,99.99
2018-07-28T06:40:54.481Z,99.99
2018-07-28T06:42:03.608Z,99.99
2018-07-28T06:42:54.454Z,99.99
2018-07-28T06:43:54.438Z,99.60
2018-07-28T06:44:54.439Z,96.41
2018-07-28T06:45:54.414Z,94.48
2018-07-28T06:46:54.398Z,94.67
2018-07-28T06:47:54.388Z,94.62
2018-07-28T06:48:54.372Z,93.46
2018-07-28T06:49:54.630Z,91.72
2018-07-28T06:50:54.347Z,91.24
2018-07-28T06:51:54.333Z,92.49
2018-07-28T06:52:54.318Z,89.83
2018-07-28T06:53:54.316Z,89.54
2018-07-28T06:54:54.294Z,89.64
2018-07-28T06:55:54.280Z,91.33
2018-07-28T06:56:54.273Z,89.59
2018-07-28T06:57:55.049Z,86.01
2018-07-28T06:58:54.255Z,83.30
2018-07-28T06:59:54.227Z,85.57
2018-07-28T07:00:55.047Z,84.99
2018-07-28T07:01:54.202Z,84.01
2018-07-28T07:02:54.194Z,82.90
2018-07-28T07:03:54.190Z,80.71
2018-07-28T07:04:54.184Z,79.93
2018-07-28T07:05:54.149Z,80.96
2018-07-28T07:06:54.137Z,83.09
2018-07-28T07:07:54.125Z,80.87
2018-07-28T07:08:54.114Z,80.47
2018-07-28T07:09:54.108Z,80.28
2018-07-28T07:10:54.092Z,80.28
2018-07-28T07:11:54.076Z,79.80
2018-07-28T07:12:54.062Z,79.25
2018-07-28T07:13:54.049Z,77.22
2018-07-28T07:14:54.068Z,75.51
2018-07-28T07:15:54.025Z,72.83
2018-07-28T07:16:54.007Z,71.61
2018-07-28T07:17:54.004Z,70.35
2018-07-28T07:18:53.987Z,72.81
2018-07-28T07:19:53.976Z,69.15
2018-07-28T07:20:53.977Z,68.67
2018-07-28T07:21:53.952Z,68.99
2018-07-28T07:22:53.940Z,67.89
2018-07-28T07:23:53.927Z,69.38
2018-07-28T07:24:53.916Z,65.69
2018-07-28T07:25:53.903Z,68.08
2018-07-28T07:26:53.903Z,68.35
2018-07-28T07:27:53.882Z,69.51
2018-07-28T07:28:53.869Z,70.15
2018-07-28T07:29:53.857Z,71.48
2018-07-28T07:30:53.848Z,72.06
2018-07-28T07:31:53.849Z,72.31
2018-07-28T07:32:53.837Z,72.22
2018-07-28T07:33:53.814Z,72.77
2018-07-28T07:34:53.800Z,73.44
2018-07-28T07:35:53.790Z,75.48
2018-07-28T07:36:53.777Z,75.67
2018-07-28T07:37:53.776Z,74.22
2018-07-28T07:38:53.751Z,74.60
2018-07-28T07:39:53.745Z,74.12
2018-07-28T07:40:53.731Z,74.32
2018-07-28T07:41:53.720Z,74.70
2018-07-28T07:42:53.718Z,74.32
2018-07-28T07:43:53.699Z,74.90
2018-07-28T07:44:53.687Z,74.41
2018-07-28T07:45:53.672Z,74.93
2018-07-28T07:46:53.662Z,74.60
2018-07-28T07:47:53.665Z,74.60
2018-07-28T07:48:53.641Z,74.70
2018-07-28T07:49:53.627Z,74.22
2018-07-28T07:50:53.616Z,75.57
2018-07-28T07:51:53.603Z,74.22
2018-07-28T07:52:53.591Z,74.51
2018-07-28T07:53:53.616Z,74.41
2018-07-28T07:54:53.569Z,75.48
2018-07-28T07:55:53.558Z,75.28
2018-07-28T07:56:53.544Z,75.28
2018-07-28T07:57:53.534Z,76.74
2018-07-28T07:58:53.532Z,77.12
2018-07-28T07:59:53.515Z,75.96
2018-07-28T08:00:53.501Z,75.63
2018-07-28T08:01:53.489Z,76.21
2018-07-28T08:02:53.476Z,77.96
2018-07-28T08:03:53.473Z,78.54
2018-07-28T08:04:53.518Z,76.89
2018-07-28T08:05:53.440Z,76.89
2018-07-28T08:06:53.431Z,76.79
2018-07-28T08:07:53.417Z,75.92
2018-07-28T08:08:53.413Z,76.21
2018-07-28T08:09:53.393Z,76.89
2018-07-28T08:10:53.381Z,76.60
2018-07-28T08:11:53.373Z,76.60
2018-07-28T08:12:53.358Z,76.60
2018-07-28T08:13:53.356Z,76.54
2018-07-28T08:14:53.333Z,79.64
2018-07-28T08:15:53.323Z,77.51
2018-07-28T08:16:53.310Z,78.09
2018-07-28T08:17:53.304Z,79.06
2018-07-28T08:18:53.300Z,79.06
2018-07-28T08:19:53.274Z,76.83
2018-07-28T08:20:53.268Z,78.58
2018-07-28T08:21:53.249Z,78.42
2018-07-28T08:22:53.238Z,78.42
2018-07-28T08:23:53.243Z,76.97
2018-07-28T08:24:53.214Z,76.87
2018-07-28T08:25:53.202Z,77.06
2018-07-28T08:26:53.298Z,76.29
2018-07-28T08:27:53.179Z,76.42
2018-07-28T08:28:53.167Z,76.52
2018-07-28T08:29:53.166Z,76.52
2018-07-28T08:30:53.144Z,75.55
2018-07-28T08:31:53.134Z,73.71
2018-07-28T08:32:53.121Z,75.16
2018-07-28T08:33:53.109Z,77.11
2018-07-28T08:34:53.111Z,74.68
2018-07-28T08:35:53.087Z,75.65
2018-07-28T08:36:53.075Z,74.68
2018-07-28T08:37:53.075Z,73.03
2018-07-28T08:38:53.052Z,73.42
2018-07-28T08:39:53.080Z,73.42
2018-07-28T08:40:53.038Z,72.41
2018-07-28T08:41:53.022Z,72.83
2018-07-28T08:42:53.006Z,73.61
2018-07-28T08:43:52.995Z,75.36
2018-07-28T08:44:52.984Z,72.83
2018-07-28T08:45:52.982Z,72.35
2018-07-28T08:46:52.960Z,70.83
2018-07-28T08:47:52.949Z,72.25
2018-07-28T08:48:52.975Z,72.45
2018-07-28T08:49:52.927Z,72.55
2018-07-28T08:50:52.929Z,71.48
2018-07-28T08:51:52.907Z,72.35
2018-07-28T08:52:52.893Z,74.19
2018-07-28T08:53:52.882Z,70.70
2018-07-28T08:54:52.877Z,72.77
2018-07-28T08:55:52.872Z,72.00
2018-07-28T08:56:52.848Z,71.86
2018-07-28T08:57:52.837Z,71.19
2018-07-28T08:58:52.826Z,72.16
2018-07-28T08:59:52.815Z,74.00
2018-07-28T09:00:52.813Z,72.35
2018-07-28T09:01:52.793Z,70.41
2018-07-28T09:02:52.782Z,73.07
2018-07-28T09:03:52.770Z,72.39
2018-07-28T09:04:52.759Z,72.33
2018-07-28T09:05:52.795Z,72.52
2018-07-28T09:06:52.742Z,72.03
2018-07-28T09:07:52.725Z,73.14
2018-07-28T09:08:52.716Z,70.42
2018-07-28T09:09:52.788Z,70.51
2018-07-28T09:10:52.703Z,70.71
2018-07-28T09:11:52.683Z,70.61
2018-07-28T09:12:52.672Z,71.06
2018-07-28T09:13:52.659Z,70.42
2018-07-28T09:14:52.650Z,70.61
2018-07-28T09:15:52.654Z,69.41
2018-07-28T09:16:52.627Z,68.87
2018-07-28T09:17:52.620Z,69.06
2018-07-28T09:18:52.606Z,68.02
2018-07-28T09:19:52.596Z,67.34
2018-07-28T09:20:52.584Z,66.27
2018-07-28T09:21:52.588Z,67.80
2018-07-28T09:22:52.564Z,67.15
2018-07-28T09:23:52.555Z,67.83
2018-07-28T09:24:52.541Z,68.48
2018-07-28T09:25:52.533Z,68.67
2018-07-28T09:26:52.531Z,69.41
2018-07-28T09:27:52.511Z,68.93
2018-07-28T09:28:52.509Z,68.63
2018-07-28T09:29:52.491Z,68.67
2018-07-28T09:30:52.480Z,67.31
2018-07-28T09:31:52.480Z,67.73
2018-07-28T09:32:52.460Z,67.63
2018-07-28T09:33:52.454Z,67.93
2018-07-28T09:34:52.440Z,67.38
2018-07-28T09:35:52.429Z,67.67
2018-07-28T09:36:52.520Z,65.27
2018-07-28T09:37:52.488Z,65.50
2018-07-28T09:38:52.399Z,66.47
2018-07-28T09:39:52.391Z,64.00
2018-07-28T09:40:52.383Z,64.78
2018-07-28T09:41:52.400Z,65.88
2018-07-28T09:42:52.358Z,63.39
2018-07-28T09:43:52.349Z,65.88
2018-07-28T09:44:52.338Z,62.80
2018-07-28T09:45:52.329Z,62.48
2018-07-28T09:46:52.377Z,63.45
2018-07-28T09:47:52.319Z,63.26
2018-07-28T09:48:52.299Z,63.16
2018-07-28T09:49:52.291Z,63.52
2018-07-28T09:50:52.281Z,64.52
2018-07-28T09:51:52.271Z,64.23
2018-07-28T09:52:52.271Z,63.94
2018-07-28T09:53:52.252Z,62.74
2018-07-28T09:54:52.240Z,64.59
2018-07-28T09:55:52.233Z,63.94
2018-07-28T09:56:52.224Z,62.60
2018-07-28T09:57:52.231Z,60.78
2018-07-28T09:58:52.205Z,59.62
2018-07-28T09:59:52.201Z,60.30
2018-07-28T10:00:52.185Z,59.64
2018-07-28T10:01:52.175Z,59.23
2018-07-28T10:02:52.168Z,59.64
2018-07-28T10:03:52.166Z,59.64
2018-07-28T10:04:52.146Z,57.79
2018-07-28T10:05:52.135Z,60.03
2018-07-28T10:06:52.128Z,58.18
2018-07-28T10:07:52.119Z,60.82
2018-07-28T10:08:52.170Z,59.28
2018-07-28T10:09:52.101Z,57.82
2018-07-28T10:10:52.092Z,57.31
2018-07-28T10:11:52.086Z,57.67
2018-07-28T10:12:52.075Z,59.10
2018-07-28T10:13:52.081Z,58.71
2018-07-28T10:14:52.059Z,60.10
2018-07-28T10:15:52.050Z,60.27
2018-07-28T10:16:52.036Z,60.88
2018-07-28T10:17:52.030Z,60.88
2018-07-28T10:18:52.019Z,61.18
2018-07-28T10:19:52.022Z,60.62
2018-07-28T10:20:51.999Z,61.01
2018-07-28T10:21:51.991Z,59.55
2018-07-28T10:22:52.052Z,58.18
2018-07-28T10:23:51.973Z,58.12
2018-07-28T10:24:51.977Z,58.70
2018-07-28T10:25:51.953Z,58.99
2018-07-28T10:26:51.945Z,58.04
2018-07-28T10:27:51.935Z,57.82
2018-07-28T10:28:51.925Z,56.33
2018-07-28T10:29:51.917Z,57.21
2018-07-28T10:30:51.923Z,56.82
2018-07-28T10:31:51.900Z,56.43
2018-07-28T10:32:51.891Z,56.43
2018-07-28T10:33:51.880Z,57.57
2018-07-28T10:34:51.871Z,59.74
2018-07-28T10:35:51.872Z,57.70
2018-07-28T10:36:51.855Z,59.55
2018-07-28T10:37:51.845Z,58.58
2018-07-28T10:38:51.835Z,58.58
2018-07-28T10:39:51.830Z,56.92
2018-07-28T10:40:51.833Z,56.82
2018-07-28T10:41:51.808Z,56.52
2018-07-28T10:42:51.799Z,56.50
2018-07-28T10:43:51.788Z,55.72
2018-07-28T10:44:51.780Z,56.30
2018-07-28T10:45:51.775Z,56.33
2018-07-28T10:46:51.776Z,58.61
2018-07-28T10:47:51.754Z,57.54
2018-07-28T10:48:51.742Z,58.10
2018-07-28T10:49:51.734Z,57.51
2018-07-28T10:50:51.725Z,57.32
2018-07-28T10:51:51.728Z,58.00
2018-07-28T10:52:51.719Z,60.17
2018-07-28T10:53:51.698Z,58.51
2018-07-28T10:54:51.688Z,57.57
2018-07-28T10:55:51.681Z,57.28
2018-07-28T10:56:51.669Z,57.11
2018-07-28T10:57:51.668Z,55.65
2018-07-28T10:58:51.653Z,56.72
2018-07-28T10:59:51.642Z,56.23
2018-07-28T11:00:51.632Z,55.65
2018-07-28T11:01:51.623Z,56.85
2018-07-28T11:02:51.630Z,55.58
2018-07-28T11:03:51.605Z,53.85
2018-07-28T11:04:51.595Z,54.90
2018-07-28T11:05:51.587Z,56.11
2018-07-28T11:06:51.577Z,55.52
2018-07-28T11:07:51.570Z,55.75
2018-07-28T11:08:51.567Z,54.80
2018-07-28T11:09:51.551Z,54.24
2018-07-28T11:10:51.543Z,53.22
2018-07-28T11:11:51.533Z,52.44
2018-07-28T11:12:51.537Z,53.10
2018-07-28T11:13:51.514Z,51.73
2018-07-28T11:14:51.507Z,51.00
2018-07-28T11:15:51.497Z,50.44
2018-07-28T11:16:51.486Z,48.60
2018-07-28T11:17:51.479Z,47.33
2018-07-28T11:18:51.512Z,48.01
2018-07-28T11:19:51.460Z,47.79
2018-07-28T11:20:51.450Z,49.48
2018-07-28T11:21:51.442Z,49.75
2018-07-28T11:22:51.433Z,49.55
2018-07-28T11:23:51.443Z,51.46
2018-07-28T11:24:51.419Z,51.22
2018-07-28T11:25:51.422Z,50.71
2018-07-28T11:26:51.398Z,51.66
2018-07-28T11:27:51.391Z,53.39
2018-07-28T11:28:51.380Z,52.95
2018-07-28T11:29:51.381Z,54.77
2018-07-28T11:30:51.363Z,54.65
2018-07-28T11:31:51.361Z,56.40
2018-07-28T11:32:51.345Z,55.99
2018-07-28T11:33:51.337Z,57.45
2018-07-28T11:34:51.336Z,57.32
2018-07-28T11:35:51.319Z,58.69
2018-07-28T11:36:51.312Z,59.27
2018-07-28T11:37:51.325Z,58.69
2018-07-28T11:38:51.290Z,57.20
2018-07-28T11:39:51.294Z,57.78
2018-07-28T11:40:51.272Z,57.56
2018-07-28T11:41:51.263Z,57.75
2018-07-28T11:42:51.253Z,57.85
2018-07-28T11:43:51.242Z,58.17
2018-07-28T11:44:51.265Z,58.17
2018-07-28T11:45:51.261Z,61.08
2018-07-28T11:46:51.214Z,62.13
2018-07-28T11:47:51.204Z,62.41
2018-07-28T11:48:51.196Z,63.94
2018-07-28T11:49:51.183Z,63.36
2018-07-28T11:50:51.190Z,62.38
2018-07-28T11:51:51.169Z,62.58
2018-07-28T11:52:51.155Z,62.87
2018-07-28T11:53:51.144Z,63.55
2018-07-28T11:54:51.134Z,62.48
2018-07-28T11:55:51.140Z,63.55
2018-07-28T11:56:51.118Z,63.84
2018-07-28T11:57:51.107Z,62.51
2018-07-28T11:58:51.095Z,63.87
2018-07-28T11:59:51.084Z,63.00
2018-07-28T12:00:51.074Z,62.51
2018-07-28T12:01:51.128Z,62.61
2018-07-28T12:02:51.054Z,62.71
2018-07-28T12:03:51.045Z,62.23
2018-07-28T12:04:51.032Z,62.41
2018-07-28T12:05:51.023Z,63.39
2018-07-28T12:06:51.023Z,63.29
2018-07-28T12:07:51.002Z,62.81
2018-07-28T12:08:50.992Z,62.64
2018-07-28T12:09:50.979Z,60.98
2018-07-28T12:10:50.974Z,59.64
2018-07-28T12:11:50.971Z,58.69
2018-07-28T12:12:50.948Z,56.26
2018-07-28T12:13:50.938Z,54.11
2018-07-28T12:14:50.929Z,52.67
2018-07-28T12:15:50.922Z,51.54
2018-07-28T12:16:50.919Z,51.20
2018-07-28T12:17:50.908Z,49.48
2018-07-28T12:18:50.898Z,48.72
2018-07-28T12:19:50.885Z,48.82
2018-07-28T12:20:50.863Z,49.55
2018-07-28T12:21:50.868Z,51.57
2018-07-28T12:22:50.850Z,46.68
2018-07-28T12:23:50.867Z,45.60
2018-07-28T12:24:50.830Z,45.40
2018-07-28T12:25:50.822Z,46.21
2018-07-28T12:26:50.822Z,47.22
2018-07-28T12:27:50.803Z,47.31
2018-07-28T12:28:50.796Z,47.92
2018-07-28T12:29:50.794Z,49.11
2018-07-28T12:30:50.823Z,47.28
2018-07-28T12:31:50.784Z,46.72
2018-07-28T12:32:50.760Z,46.72
2018-07-28T12:33:50.750Z,46.34
2018-07-28T12:34:50.806Z,46.64
2018-07-28T12:35:50.739Z,45.28
2018-07-28T12:36:50.724Z,43.38
2018-07-28T12:37:50.727Z,44.18
2018-07-28T12:38:50.710Z,43.29
2018-07-28T12:39:50.701Z,43.68
2018-07-28T12:40:50.692Z,42.97
2018-07-28T12:41:50.684Z,44.64
2018-07-28T12:42:50.684Z,44.93
2018-07-28T12:43:50.667Z,44.91
2018-07-28T12:44:50.656Z,45.90
2018-07-28T12:45:50.652Z,50.61
2018-07-28T12:46:50.644Z,54.50
2018-07-28T12:47:50.646Z,56.52
2018-07-28T12:48:50.627Z,56.82
2018-07-28T12:49:50.622Z,57.31
2018-07-28T12:50:50.613Z,57.45
2018-07-28T12:51:50.603Z,58.91